createdAt,value
2023-04-20T00:03:15.890Z,8.00
2023-04-20T00:05:43.339Z,7.60
2023-04-20T00:08:13.130Z,7.60
2023-04-20T00:10:40.253Z,7.60
2023-04-20T00:13:07.664Z,7.70
2023-04-20T00:15:34.726Z,8.30
2023-04-20T00:18:02.148Z,7.70
2023-04-20T00:20:29.502Z,7.90
2023-04-20T00:22:56.832Z,10.30
2023-04-20T00:25:23.831Z,7.70
2023-04-20T00:27:51.142Z,8.80
2023-04-20T00:30:18.306Z,7.60
2023-04-20T00:32:45.837Z,7.70
2023-04-20T00:35:13.671Z,7.70
2023-04-20T00:37:41.506Z,7.80
2023-04-20T00:40:09.781Z,7.70
2023-04-20T00:42:37.785Z,7.70
2023-04-20T00:45:05.327Z,7.70
2023-04-20T00:47:32.760Z,7.70
2023-04-20T00:50:03.188Z,7.70
2023-04-20T00:52:32.107Z,9.90
2023-04-20T00:57:28.243Z,7.70
2023-04-20T00:59:55.516Z,7.70
2023-04-20T01:02:23.348Z,9.70
2023-04-20T01:04:50.848Z,7.80
2023-04-20T01:07:18.429Z,7.70
2023-04-20T01:09:45.729Z,7.70
2023-04-20T01:12:13.076Z,7.60
2023-04-20T01:14:40.640Z,8.60
2023-04-20T01:17:08.150Z,7.60
2023-04-20T01:19:35.320Z,7.70
2023-04-20T01:22:03.017Z,7.90
2023-04-20T01:24:30.136Z,7.60
2023-04-20T01:26:59.910Z,7.60
2023-04-20T01:39:19.385Z,7.40
2023-04-20T01:44:15.449Z,7.40
2023-04-20T01:46:42.897Z,7.40
2023-04-20T01:49:10.118Z,7.40
2023-04-20T01:51:37.543Z,7.30
2023-04-20T01:54:04.650Z,7.70
2023-04-20T01:56:32.005Z,7.30
2023-04-20T02:03:55.367Z,7.20
2023-04-20T02:06:22.990Z,7.20
2023-04-20T02:08:50.114Z,7.20
2023-04-20T02:11:17.735Z,9.10
2023-04-20T02:13:44.834Z,9.20
2023-04-20T02:16:12.823Z,7.30
2023-04-20T02:18:39.978Z,7.10
2023-04-20T02:21:07.366Z,7.10
2023-04-20T02:23:35.165Z,7.50
2023-04-20T02:26:02.571Z,7.00
2023-04-20T02:28:29.606Z,7.00
2023-04-20T02:30:57.008Z,7.30
2023-04-20T02:33:24.082Z,6.90
2023-04-20T02:35:54.178Z,6.80
2023-04-20T02:38:21.257Z,7.20
2023-04-20T02:43:17.467Z,6.70
2023-04-20T02:45:45.334Z,6.70
2023-04-20T02:48:13.325Z,6.50
2023-04-20T02:50:42.548Z,6.60
2023-04-20T02:55:53.039Z,6.60
2023-04-20T02:58:34.005Z,8.70
2023-04-20T03:01:21.512Z,6.70
2023-04-20T03:06:19.585Z,6.70
2023-04-20T03:08:52.897Z,6.60
2023-04-20T03:11:38.806Z,6.70
2023-04-20T03:14:06.358Z,7.00
2023-04-20T03:16:35.443Z,6.70
2023-04-20T03:19:03.176Z,6.70
2023-04-20T03:21:31.316Z,8.40
2023-04-20T03:34:11.078Z,6.30
2023-04-20T03:39:07.079Z,6.60
2023-04-20T03:41:34.459Z,6.50
2023-04-20T03:51:25.328Z,7.40
2023-04-20T03:56:22.888Z,7.10
2023-04-20T04:03:51.369Z,7.30
2023-04-20T04:14:05.300Z,7.60
2023-04-20T04:19:01.699Z,7.80
2023-04-20T04:21:29.652Z,7.80
2023-04-20T04:24:04.526Z,9.90
2023-04-20T04:26:58.516Z,8.00
2023-04-20T04:29:27.543Z,8.30
2023-04-20T04:31:58.648Z,9.80
2023-04-20T04:34:30.763Z,7.80
2023-04-20T04:36:58.391Z,7.80
2023-04-20T04:39:38.576Z,7.90
2023-04-20T04:42:22.361Z,7.80
2023-04-20T04:44:51.735Z,7.80
2023-04-20T04:52:23.227Z,7.70
2023-04-20T04:54:50.856Z,7.70
2023-04-20T04:57:18.385Z,7.70
2023-04-20T04:59:45.675Z,9.30
2023-04-20T05:02:13.134Z,8.50
2023-04-20T05:09:37.909Z,7.90
2023-04-20T05:17:01.358Z,8.20
2023-04-20T05:19:28.637Z,8.40
2023-04-20T05:21:56.169Z,8.50
2023-04-20T05:24:23.525Z,8.60
2023-04-20T05:31:46.976Z,8.70
2023-04-20T05:34:14.131Z,9.00
2023-04-20T05:36:41.624Z,9.20
2023-04-20T05:39:08.840Z,9.20
2023-04-20T05:41:36.383Z,9.00
2023-04-20T05:44:03.499Z,10.40
2023-04-20T05:46:31.278Z,10.50
2023-04-20T05:48:58.514Z,9.20
2023-04-20T05:51:29.127Z,9.40
2023-04-20T05:53:56.381Z,11.40
2023-04-20T05:56:23.889Z,9.90
2023-04-20T05:58:51.146Z,10.40
2023-04-20T06:01:19.052Z,10.70
2023-04-20T06:03:47.572Z,11.00
2023-04-20T06:06:16.716Z,11.00
2023-04-20T06:08:44.267Z,11.00
2023-04-20T06:11:11.696Z,11.10
2023-04-20T06:16:09.852Z,11.20
2023-04-20T06:18:37.727Z,11.40
2023-04-20T06:21:05.243Z,11.70
2023-04-20T06:23:32.476Z,11.60
2023-04-20T06:26:00.134Z,11.90
2023-04-20T06:28:27.191Z,12.80
2023-04-20T06:30:54.703Z,13.40
2023-04-20T06:33:21.848Z,13.60
2023-04-20T06:35:51.573Z,13.70
2023-04-20T06:38:18.789Z,14.20
2023-04-20T06:40:46.352Z,14.20
2023-04-20T06:43:13.545Z,14.20
2023-04-20T06:45:41.107Z,14.80
2023-04-20T06:48:14.404Z,14.00
2023-04-20T06:50:55.937Z,13.60
2023-04-20T06:53:23.132Z,14.50
2023-04-20T06:55:50.713Z,14.20
2023-04-20T06:58:17.880Z,14.30
2023-04-20T07:00:45.697Z,14.70
2023-04-20T07:03:12.984Z,15.20
2023-04-20T07:05:40.951Z,16.00
2023-04-20T07:08:09.572Z,16.20
2023-04-20T07:10:37.033Z,16.30
2023-04-20T07:13:04.137Z,16.80
2023-04-20T07:15:31.838Z,15.20
2023-04-20T07:17:59.400Z,14.70
2023-04-20T07:20:26.923Z,14.30
2023-04-20T07:22:54.073Z,14.40
2023-04-20T07:25:21.933Z,14.30
2023-04-20T07:27:49.276Z,14.40
2023-04-20T07:30:16.766Z,14.70
2023-04-20T07:32:43.966Z,14.70
2023-04-20T07:35:11.642Z,14.30
2023-04-20T07:37:39.052Z,14.20
2023-04-20T07:40:07.366Z,13.90
2023-04-20T07:42:38.861Z,13.70
2023-04-20T07:45:07.329Z,13.80
2023-04-20T07:47:35.561Z,13.80
2023-04-20T07:50:04.126Z,14.50
2023-04-20T07:52:31.326Z,15.00
2023-04-20T07:54:59.639Z,15.30
2023-04-20T07:57:27.295Z,15.50
2023-04-20T07:59:54.977Z,15.40
2023-04-20T08:02:22.561Z,15.10
2023-04-20T08:04:50.962Z,15.00
2023-04-20T08:07:19.368Z,14.90
2023-04-20T08:09:46.831Z,15.00
2023-04-20T08:12:13.964Z,14.90
2023-04-20T08:14:41.569Z,15.30
2023-04-20T08:17:08.745Z,15.00
2023-04-20T08:19:36.313Z,14.80
2023-04-20T08:22:04.310Z,14.80
2023-04-20T08:24:32.261Z,15.10
2023-04-20T08:26:59.445Z,15.70
2023-04-20T08:29:27.120Z,15.70
2023-04-20T08:31:55.891Z,16.10
2023-04-20T08:34:23.625Z,16.30
2023-04-20T08:36:51.439Z,16.90
2023-04-20T08:39:24.402Z,16.60
2023-04-20T08:41:55.821Z,16.80
2023-04-20T08:44:24.742Z,16.70
2023-04-20T08:46:52.099Z,18.70
2023-04-20T08:49:20.528Z,17.90
2023-04-20T08:51:49.292Z,18.40
2023-04-20T08:54:19.593Z,18.90
2023-04-20T08:56:47.978Z,19.40
2023-04-20T08:59:16.983Z,19.70
2023-04-20T09:01:45.520Z,19.60
2023-04-20T09:04:26.096Z,20.00
2023-04-20T09:06:55.735Z,20.70
2023-04-20T09:09:27.431Z,21.20
2023-04-20T09:12:05.423Z,20.90
2023-04-20T09:14:46.609Z,20.20
2023-04-20T09:17:15.268Z,20.20
2023-04-20T09:19:44.987Z,21.00
2023-04-20T09:22:12.490Z,21.50
2023-04-20T09:24:41.564Z,21.70
2023-04-20T09:27:19.419Z,21.70
2023-04-20T09:29:58.085Z,20.90
2023-04-20T09:32:28.309Z,19.90
2023-04-20T09:42:20.204Z,21.20
2023-04-20T09:44:48.557Z,21.00
2023-04-20T09:47:17.269Z,19.80
2023-04-20T09:49:46.977Z,19.90
2023-04-20T09:52:20.423Z,20.00
2023-04-20T09:59:46.655Z,19.80
2023-04-20T10:04:58.122Z,21.00
2023-04-20T10:07:31.968Z,21.40
2023-04-20T10:10:07.802Z,22.70
2023-04-20T10:15:05.014Z,23.90
2023-04-20T10:17:33.236Z,23.60
2023-04-20T10:22:35.371Z,21.80
2023-04-20T10:25:17.175Z,22.00
2023-04-20T10:28:04.537Z,22.20
2023-04-20T10:30:33.787Z,21.40
2023-04-20T10:33:08.532Z,21.10
2023-04-20T10:35:54.705Z,21.50
2023-04-20T10:38:35.871Z,22.60
2023-04-20T10:41:10.650Z,23.40
2023-04-20T10:46:21.847Z,25.60
2023-04-20T10:48:57.166Z,25.50
2023-04-20T10:51:26.004Z,24.30
2023-04-20T10:54:05.140Z,25.30
2023-04-20T10:56:49.597Z,24.70
2023-04-20T10:59:19.150Z,25.20
2023-04-20T11:01:47.571Z,25.20
2023-04-20T11:04:18.304Z,24.10
2023-04-20T11:06:48.419Z,24.00
2023-04-20T11:09:26.289Z,23.80
2023-04-20T11:12:04.613Z,22.70
2023-04-20T11:14:40.336Z,23.20
2023-04-20T11:17:07.765Z,23.30
2023-04-20T11:19:36.453Z,22.90
2023-04-20T11:22:06.258Z,23.20
2023-04-20T11:24:34.299Z,23.50
2023-04-20T11:27:04.744Z,24.30
2023-04-20T11:29:33.680Z,24.20
2023-04-20T11:32:04.254Z,23.10
2023-04-20T11:34:32.261Z,23.40
2023-04-20T11:37:10.712Z,24.00
2023-04-20T11:39:38.582Z,25.00
2023-04-20T11:42:06.563Z,24.40
2023-04-20T11:44:36.505Z,23.90
2023-04-20T11:47:04.167Z,23.60
2023-04-20T11:49:31.498Z,22.60
2023-04-20T11:51:58.929Z,21.50
2023-04-20T11:54:27.250Z,20.50
2023-04-20T11:56:54.639Z,20.00
2023-04-20T11:59:21.939Z,20.00
2023-04-20T12:01:49.415Z,20.40
2023-04-20T12:04:16.989Z,21.90
2023-04-20T12:06:44.904Z,22.90
2023-04-20T12:09:13.571Z,24.10
2023-04-20T12:11:41.174Z,24.70
2023-04-20T12:14:08.314Z,25.10
2023-04-20T12:16:35.713Z,25.10
2023-04-20T12:19:03.620Z,24.10
2023-04-20T12:21:32.619Z,22.90
2023-04-20T12:24:00.064Z,22.40
2023-04-20T12:26:37.187Z,21.20
2023-04-20T12:29:05.354Z,20.60
2023-04-20T12:31:32.854Z,20.00
2023-04-20T12:34:00.142Z,19.90
2023-04-20T12:36:28.172Z,20.20
2023-04-20T12:38:56.119Z,21.50
2023-04-20T12:41:23.813Z,22.90
2023-04-20T12:43:51.463Z,23.60
2023-04-20T12:46:19.085Z,24.50
2023-04-20T12:48:46.368Z,25.20
2023-04-20T12:51:15.200Z,25.10
2023-04-20T12:53:42.654Z,25.80
2023-04-20T12:56:10.366Z,26.50
2023-04-20T12:58:37.563Z,26.20
2023-04-20T13:01:05.211Z,24.20
2023-04-20T13:03:33.231Z,23.00
2023-04-20T13:06:01.749Z,21.40
2023-04-20T13:08:29.406Z,20.90
2023-04-20T13:10:56.819Z,20.40
2023-04-20T13:13:24.079Z,19.90
2023-04-20T13:15:54.898Z,19.60
2023-04-20T13:18:24.332Z,19.80
2023-04-20T13:20:51.989Z,20.40
2023-04-20T13:23:19.359Z,20.90
2023-04-20T13:25:47.492Z,21.10
2023-04-20T13:28:14.983Z,21.40
2023-04-20T13:30:42.550Z,21.90
2023-04-20T13:33:10.304Z,21.70
2023-04-20T13:35:38.333Z,22.00
2023-04-20T13:38:05.879Z,22.70
2023-04-20T13:40:33.511Z,22.90
2023-04-20T13:43:00.893Z,23.20
2023-04-20T13:45:28.635Z,22.50
2023-04-20T13:47:56.124Z,22.30
2023-04-20T13:50:25.197Z,21.90
2023-04-20T13:52:52.748Z,21.20
2023-04-20T13:55:21.320Z,20.70
2023-04-20T13:57:48.644Z,20.50
2023-04-20T14:00:16.772Z,20.00
2023-04-20T14:02:44.705Z,20.00
2023-04-20T14:05:12.452Z,20.70
2023-04-20T14:07:39.814Z,21.80
2023-04-20T14:10:07.996Z,22.70
2023-04-20T14:12:35.397Z,23.30
2023-04-20T14:15:02.877Z,23.80
2023-04-20T14:17:30.119Z,24.40
2023-04-20T14:19:57.545Z,24.40
2023-04-20T14:22:25.051Z,24.40
2023-04-20T14:24:52.507Z,23.60
2023-04-20T14:27:19.980Z,23.20
2023-04-20T14:29:47.670Z,22.90
2023-04-20T14:32:14.911Z,22.10
2023-04-20T14:34:42.327Z,21.30
2023-04-20T14:37:09.895Z,20.70
2023-04-20T14:39:37.578Z,20.20
2023-04-20T14:42:05.013Z,19.90
2023-04-20T14:44:32.799Z,19.70
2023-04-20T14:47:00.233Z,19.50
2023-04-20T14:49:27.639Z,19.30
2023-04-20T14:51:55.087Z,19.20
2023-04-20T14:54:22.577Z,19.10
2023-04-20T14:56:49.983Z,19.10
2023-04-20T14:59:17.460Z,19.10
2023-04-20T15:01:58.786Z,19.20
2023-04-20T15:04:29.544Z,19.10
2023-04-20T15:06:57.271Z,19.20
2023-04-20T15:09:26.181Z,19.20
2023-04-20T15:11:53.536Z,19.20
2023-04-20T15:14:21.286Z,19.10
2023-04-20T15:16:48.885Z,19.10
2023-04-20T15:19:16.627Z,19.30
2023-04-20T15:21:44.642Z,19.30
2023-04-20T15:24:12.346Z,19.40
2023-04-20T15:26:39.479Z,19.50
2023-04-20T15:29:06.883Z,19.30
2023-04-20T15:31:34.354Z,19.20
2023-04-20T15:34:03.261Z,18.90
2023-04-20T15:36:30.992Z,18.70
2023-04-20T15:38:58.351Z,18.40
2023-04-20T15:41:25.827Z,19.10
2023-04-20T15:43:53.174Z,18.30
2023-04-20T15:46:24.302Z,18.30
2023-04-20T15:48:56.964Z,18.30
2023-04-20T15:51:24.963Z,18.40
2023-04-20T15:53:52.787Z,18.40
2023-04-20T15:56:22.767Z,18.30
2023-04-20T15:58:53.707Z,18.30
2023-04-20T16:01:21.180Z,18.20
2023-04-20T16:03:50.068Z,18.20
2023-04-20T16:06:17.525Z,18.10
2023-04-20T16:08:45.415Z,18.10
2023-04-20T16:11:12.682Z,18.10
2023-04-20T16:13:40.062Z,18.00
2023-04-20T16:16:07.647Z,18.00
2023-04-20T16:18:35.273Z,18.00
2023-04-20T16:21:02.366Z,17.80
2023-04-20T16:23:29.775Z,17.80
2023-04-20T16:25:57.094Z,17.80
2023-04-20T16:28:24.800Z,17.80
2023-04-20T16:30:51.935Z,17.70
2023-04-20T16:33:19.780Z,17.60
2023-04-20T16:35:46.859Z,17.80
2023-04-20T16:38:14.230Z,17.70
2023-04-20T16:40:43.618Z,17.50
2023-04-20T16:43:11.274Z,17.40
2023-04-20T16:45:39.143Z,17.50
2023-04-20T16:48:08.240Z,17.30
2023-04-20T16:50:37.791Z,17.20
2023-04-20T16:53:06.784Z,17.10
2023-04-20T16:55:33.859Z,17.00
2023-04-20T16:58:01.505Z,16.90
2023-04-20T17:00:33.576Z,16.90
2023-04-20T17:03:01.470Z,16.70
2023-04-20T17:05:29.028Z,16.70
2023-04-20T17:07:56.568Z,16.40
2023-04-20T17:10:23.881Z,16.50
2023-04-20T17:12:51.603Z,16.30
2023-04-20T17:15:19.323Z,16.20
2023-04-20T17:17:46.890Z,16.10
2023-04-20T17:20:14.370Z,16.10
2023-04-20T17:22:42.050Z,15.90
2023-04-20T17:25:10.001Z,15.80
2023-04-20T17:27:37.584Z,15.70
2023-04-20T17:30:06.074Z,15.70
2023-04-20T17:32:33.594Z,15.50
2023-04-20T17:35:01.213Z,15.40
2023-04-20T17:37:28.785Z,15.30
2023-04-20T17:39:56.055Z,15.30
2023-04-20T17:42:23.602Z,15.10
2023-04-20T17:44:51.669Z,14.90
2023-04-20T17:47:19.450Z,14.80
2023-04-20T17:49:47.296Z,14.70
2023-04-20T17:52:19.713Z,14.60
2023-04-20T17:54:48.237Z,14.60
2023-04-20T17:57:15.932Z,14.50
2023-04-20T17:59:44.671Z,14.60
2023-04-20T18:02:13.680Z,14.50
2023-04-20T18:04:42.062Z,14.40
2023-04-20T18:07:10.174Z,14.40
2023-04-20T18:09:38.996Z,14.30
2023-04-20T18:12:08.727Z,14.20
2023-04-20T18:14:36.306Z,14.10
2023-04-20T18:17:05.044Z,14.00
2023-04-20T18:19:32.894Z,14.00
2023-04-20T18:22:00.768Z,13.90
2023-04-20T18:24:28.484Z,13.80
2023-04-20T18:26:57.782Z,13.60
2023-04-20T18:29:25.518Z,13.50
2023-04-20T18:31:53.677Z,13.40
2023-04-20T18:34:21.738Z,13.40
2023-04-20T18:36:49.378Z,13.30
2023-04-20T18:39:17.114Z,13.30
2023-04-20T18:41:45.348Z,13.20
2023-04-20T18:44:12.943Z,13.10
2023-04-20T18:46:42.199Z,13.00
2023-04-20T18:49:11.187Z,13.00
2023-04-20T18:51:38.958Z,12.90
2023-04-20T18:54:07.172Z,12.90
2023-04-20T18:56:37.354Z,12.90
2023-04-20T18:59:06.202Z,12.70
2023-04-20T19:01:35.555Z,12.70
2023-04-20T19:04:03.841Z,12.70
2023-04-20T19:06:31.915Z,12.70
2023-04-20T19:08:59.302Z,12.70
2023-04-20T19:11:27.424Z,12.60
2023-04-20T19:13:55.058Z,12.70
2023-04-20T19:16:23.749Z,12.60
2023-04-20T19:18:51.604Z,12.50
2023-04-20T19:21:22.053Z,12.50
2023-04-20T19:23:50.194Z,12.50
2023-04-20T19:26:18.768Z,12.40
2023-04-20T19:28:46.822Z,12.30
2023-04-20T19:31:16.144Z,12.30
2023-04-20T19:33:44.145Z,12.20
2023-04-20T19:36:12.186Z,12.20
2023-04-20T19:38:39.682Z,12.10
2023-04-20T19:41:09.176Z,12.10
2023-04-20T19:43:37.672Z,11.90
2023-04-20T19:46:10.150Z,11.90
2023-04-20T19:48:48.596Z,11.90
2023-04-20T19:51:22.860Z,11.90
2023-04-20T19:53:51.075Z,12.70
2023-04-20T19:56:19.499Z,11.90
2023-04-20T19:58:47.291Z,11.90
2023-04-20T20:01:40.758Z,11.80
2023-04-20T20:04:08.810Z,11.70
2023-04-20T20:06:37.891Z,11.60
2023-04-20T20:09:06.613Z,11.60
2023-04-20T20:11:34.429Z,11.50
2023-04-20T20:14:01.969Z,12.80
2023-04-20T20:16:30.788Z,11.40
2023-04-20T20:19:00.121Z,11.30
2023-04-20T20:21:28.747Z,11.30
2023-04-20T20:23:57.243Z,11.20
2023-04-20T20:26:25.246Z,11.20
2023-04-20T20:28:53.688Z,11.00
2023-04-20T20:31:21.933Z,10.90
2023-04-20T20:33:50.279Z,10.80
2023-04-20T20:36:19.242Z,10.70
2023-04-20T20:38:47.432Z,10.60
2023-04-20T20:41:16.665Z,10.40
2023-04-20T20:43:45.914Z,10.30
2023-04-20T20:46:14.182Z,10.20
2023-04-20T20:48:41.716Z,10.10
2023-04-20T20:51:09.945Z,10.00
2023-04-20T20:53:37.574Z,10.00
2023-04-20T20:56:05.567Z,9.90
2023-04-20T20:58:33.410Z,9.80
2023-04-20T21:01:01.481Z,9.80
2023-04-20T21:03:29.262Z,9.70
2023-04-20T21:05:57.171Z,9.70
2023-04-20T21:08:24.565Z,9.70
2023-04-20T21:10:52.129Z,9.60
2023-04-20T21:13:19.808Z,9.60
2023-04-20T21:15:47.419Z,10.40
2023-04-20T21:18:14.773Z,9.40
2023-04-20T21:20:42.505Z,9.30
2023-04-20T21:23:10.922Z,10.90
2023-04-20T21:25:38.506Z,9.20
2023-04-20T21:28:05.663Z,9.20
2023-04-20T21:30:33.193Z,9.20
2023-04-20T21:33:00.443Z,9.10
2023-04-20T21:35:27.821Z,9.80
2023-04-20T21:37:55.049Z,9.70
2023-04-20T21:40:24.131Z,8.80
2023-04-20T21:42:51.268Z,8.80
2023-04-20T21:45:18.867Z,8.70
2023-04-20T21:47:46.161Z,8.60
2023-04-20T21:50:13.768Z,8.60
2023-04-20T21:52:41.179Z,8.50
2023-04-20T21:55:08.913Z,8.40
2023-04-20T21:57:36.044Z,8.40
2023-04-20T22:00:04.222Z,9.40
2023-04-20T22:02:41.999Z,8.20
2023-04-20T22:05:10.444Z,9.00
2023-04-20T22:07:41.165Z,8.20
2023-04-20T22:10:09.228Z,8.20
2023-04-20T22:12:40.822Z,8.20
2023-04-20T22:15:13.695Z,8.20
2023-04-20T22:17:41.804Z,8.10
2023-04-20T22:20:11.240Z,8.00
2023-04-20T22:22:38.983Z,7.90
2023-04-20T22:25:08.161Z,7.90
2023-04-20T22:27:36.319Z,7.90
2023-04-20T22:30:05.891Z,7.90
2023-04-20T22:32:33.048Z,7.80
2023-04-20T22:35:00.554Z,7.70
2023-04-20T22:37:27.669Z,7.70
2023-04-20T22:39:54.975Z,7.60
2023-04-20T22:42:22.041Z,7.60
2023-04-20T22:44:49.365Z,7.50
2023-04-20T22:47:16.389Z,7.50
2023-04-20T22:49:43.657Z,7.40
2023-04-20T22:52:10.944Z,7.40
2023-04-20T22:54:38.370Z,7.40
2023-04-20T22:57:05.605Z,7.40
2023-04-20T22:59:32.952Z,7.40
2023-04-20T23:02:00.200Z,7.30
2023-04-20T23:04:27.605Z,7.10
2023-04-20T23:06:55.995Z,7.00
2023-04-20T23:09:23.763Z,7.10
2023-04-20T23:11:53.847Z,7.00
2023-04-20T23:14:23.874Z,6.90
2023-04-20T23:16:51.125Z,6.90
2023-04-20T23:19:18.747Z,6.90
2023-04-20T23:21:46.001Z,6.80
2023-04-20T23:24:13.372Z,6.90
2023-04-20T23:26:40.606Z,6.80
2023-04-20T23:29:07.924Z,6.70
2023-04-20T23:31:35.021Z,6.60
2023-04-20T23:34:02.472Z,6.60
2023-04-20T23:36:29.532Z,6.50
2023-04-20T23:38:56.967Z,6.30
2023-04-20T23:41:24.184Z,6.40
2023-04-20T23:43:51.503Z,6.40
2023-04-20T23:46:19.119Z,6.40
2023-04-20T23:48:46.452Z,6.30
2023-04-20T23:51:13.458Z,6.30
2023-04-20T23:53:40.783Z,6.20
2023-04-20T23:56:08.052Z,6.10
2023-04-20T23:58:35.747Z,6.10
